Ana Sayfa
METAR-TAF:

METAR-TAF

Havaalanları :

Václav Havel Havalimanı

Prag, Çek Cumhuriyeti

Enlem: 50-06N, Boylam: 014-15E, yükseklik: 365 m

Güncel hava durumu gözlemi

Rapor saat 23:30 UTC de 9 dakika önce yapıldı.
Rüzgar güneydan 3 kt
Sıcaklık 2°C
Nem 69%
Basınç 1027 hPa
Görüş mesafesi 10 km veya daha fazla
1500 m altında bulut yok ve kümülonimbus yok

METAR: LKPR 162330Z 19003KT CAVOK 02/M03 Q1027 NOSIG

Saat: 00:39 (23:39 UTC)

Tahmin

Rapor saat 17:00 UTC de 6 saat ve 39 dakika önce yapıldı.
Ayın 16'si saat 18 UTC'den ayın 18'si saat 00 UTC'ye kadar geçerli Tahmin
Rüzgar değişken yönden 2 kt
Görüş mesafesi 10 km veya daha fazla
1500 m altında bulut yok ve kümülonimbus yok
Geçici
ayın 16'si saat 20 UTC'den ayın 17'si saat 01 UTC'ye kadar
Rüzgar güney/güneybatıdan 8 kt
Geçici
ayın 17'si saat 11 UTC'den ayın 17'si saat 16 UTC'ye kadar
Rüzgar batı/güneybatıdan 6 kt

TAF: LKPR 161700Z 1618/1800 VRB02KT CAVOK TEMPO 1620/1701 21008KT TEMPO 1711/1716 24006KT

4.000'den fazla havaalanı için hava durumu gözlemleri ve tahminleri (METAR ve TAF raporları).

Kullanılabilir istasyonlar harita üzerinde sarı ve kırmızı noktalarla gösterilir.

İstasyonun adını görmek için fareyi noktanın üzerinde gezdirin.

Sonrasında hava gözlem ve tahminlerini görmek için tıklayın.

Haritayı değiştirmek için: yaklaştırmak için siyah artı işaretli yeşil düğmeye ve uzaklaştırmak için de eksi işaretli düğmeye hızla tıklayın; bitişik haritalar için yeşil okları kullanın.


METAR-TAF: